Time;durP1;ratioP1;P1;durP2;ratioP2;P2;SDS_P1;SDS_P2;PMS_P1;PMS_P2;Temp;Humidity;BMP_temperature;BMP_pressure;BME280_temperature;BME280_humidity;BME280_pressure;Samples;Min_cycle;Max_cycle;Signal;HPM_P1;HPM_P2
2022/01/07 00:00:19;;;;;;;6.00;2.63;;;6.50;65.90;;;;;;5046454;28;20136;-72
2022/01/07 00:02:47;;;;;;;5.43;2.30;;;6.60;66.30;;;;;;5048067;28;20483;-72
2022/01/07 00:05:14;;;;;;;4.85;2.20;;;6.60;66.10;;;;;;5048698;28;20099;-71
2022/01/07 00:07:40;;;;;;;7.45;2.50;;;6.60;66.20;;;;;;5047616;28;20099;-71
2022/01/07 00:10:08;;;;;;;4.65;2.10;;;6.50;66.50;;;;;;5048348;28;20443;-71
2022/01/07 00:12:33;;;;;;;5.30;2.33;;;6.40;66.90;;;;;;5042324;28;20060;-71
2022/01/07 00:14:59;;;;;;;6.93;2.92;;;6.40;66.90;;;;;;5048145;28;20453;-72
2022/01/07 00:17:25;;;;;;;8.00;2.90;;;6.40;66.90;;;;;;5048837;28;20025;-71
2022/01/07 00:19:51;;;;;;;6.88;2.60;;;6.30;67.20;;;;;;5046925;28;20020;-71
2022/01/07 00:22:17;;;;;;;5.40;2.33;;;6.30;67.20;;;;;;5050177;28;20230;-71
2022/01/07 00:24:42;;;;;;;5.20;2.45;;;6.20;67.60;;;;;;5050278;28;20799;-71
2022/01/07 00:27:08;;;;;;;6.03;2.50;;;6.10;68.10;;;;;;5046411;28;20083;-71
2022/01/07 00:29:34;;;;;;;6.63;2.72;;;5.90;68.90;;;;;;5051317;28;20040;-72
2022/01/07 00:32:00;;;;;;;7.57;2.70;;;5.90;68.90;;;;;;5047150;28;20021;-71
2022/01/07 00:34:26;;;;;;;6.15;2.83;;;5.80;69.10;;;;;;5047880;28;20072;-71
2022/01/07 00:36:52;;;;;;;7.28;3.15;;;5.60;68.80;;;;;;5052334;28;20028;-71
2022/01/07 00:39:18;;;;;;;6.72;2.92;;;5.60;70.00;;;;;;5052720;28;20089;-71
2022/01/07 00:41:43;;;;;;;5.55;2.40;;;5.60;70.70;;;;;;5050917;28;20101;-71
2022/01/07 00:44:09;;;;;;;6.00;3.20;;;5.60;70.50;;;;;;5051032;28;20045;-71
2022/01/07 00:46:35;;;;;;;7.95;2.80;;;5.60;69.50;;;;;;5051061;28;20091;-71
2022/01/07 00:49:00;;;;;;;4.30;2.10;;;5.60;69.20;;;;;;5053159;28;20033;-71
2022/01/07 00:51:26;;;;;;;4.82;2.10;;;5.70;69.70;;;;;;5051388;28;20025;-71
2022/01/07 00:53:52;;;;;;;5.20;2.55;;;5.70;68.80;;;;;;5049799;28;20060;-71
2022/01/07 00:56:17;;;;;;;4.25;2.15;;;5.60;68.60;;;;;;5050756;28;20518;-71
2022/01/07 00:58:43;;;;;;;4.50;2.15;;;5.70;68.10;;;;;;5052373;28;20029;-73
2022/01/07 01:01:09;;;;;;;4.65;2.50;;;5.60;67.90;;;;;;5052676;28;20025;-73
2022/01/07 01:03:35;;;;;;;6.60;2.47;;;5.60;67.70;;;;;;5053504;28;20553;-72
2022/01/07 01:06:00;;;;;;;5.47;2.33;;;5.70;67.20;;;;;;5055332;28;20039;-73
2022/01/07 01:08:27;;;;;;;4.65;2.30;;;5.60;67.20;;;;;;5055226;28;20025;-73
2022/01/07 01:10:53;;;;;;;5.15;2.20;;;5.50;67.60;;;;;;5050235;28;20475;-73
2022/01/07 01:13:19;;;;;;;3.95;2.20;;;5.60;68.00;;;;;;5050523;28;20044;-73
2022/01/07 01:15:45;;;;;;;4.63;2.35;;;5.60;68.40;;;;;;5053315;28;20029;-73
2022/01/07 01:18:11;;;;;;;4.43;1.90;;;5.50;68.90;;;;;;5050217;28;20406;-73
2022/01/07 01:20:37;;;;;;;6.78;2.20;;;5.60;69.00;;;;;;5050286;28;20096;-71
2022/01/07 01:23:03;;;;;;;3.63;1.95;;;5.50;68.50;;;;;;5042140;28;20056;-73
2022/01/07 01:25:29;;;;;;;4.10;2.22;;;5.50;68.90;;;;;;5050391;28;20117;-73
2022/01/07 01:27:55;;;;;;;4.10;2.10;;;5.50;68.70;;;;;;5052457;28;20033;-73
2022/01/07 01:30:21;;;;;;;5.10;2.15;;;5.50;69.20;;;;;;5051187;28;20543;-73
2022/01/07 01:32:48;;;;;;;4.68;2.28;;;5.40;70.20;;;;;;5049653;28;20017;-73
2022/01/07 01:35:16;;;;;;;5.90;2.47;;;5.50;68.90;;;;;;5049830;28;20496;-73
2022/01/07 01:37:42;;;;;;;7.05;2.45;;;5.50;68.10;;;;;;5050196;28;20017;-73
2022/01/07 01:40:09;;;;;;;6.53;3.10;;;5.50;67.80;;;;;;5050819;28;20038;-73
2022/01/07 01:42:36;;;;;;;6.38;2.50;;;5.40;68.10;;;;;;5052416;28;20344;-73
2022/01/07 01:45:03;;;;;;;5.97;2.30;;;5.40;69.40;;;;;;5050772;28;20509;-73
2022/01/07 01:47:29;;;;;;;5.30;2.30;;;5.30;70.80;;;;;;5049252;28;20025;-73
2022/01/07 01:49:55;;;;;;;4.95;2.20;;;5.20;71.20;;;;;;5049603;28;20509;-73
2022/01/07 01:52:20;;;;;;;4.78;2.30;;;5.10;71.00;;;;;;5049761;28;20037;-73
2022/01/07 01:54:46;;;;;;;6.38;2.60;;;5.00;71.50;;;;;;5052447;28;20515;-73
2022/01/07 01:57:14;;;;;;;7.03;2.67;;;5.10;69.80;;;;;;5050275;28;20395;-73
2022/01/07 01:59:40;;;;;;;6.20;2.50;;;5.00;69.20;;;;;;5049562;28;20171;-73
2022/01/07 02:02:06;;;;;;;6.80;2.45;;;4.90;70.20;;;;;;5049499;28;20036;-73
2022/01/07 02:04:32;;;;;;;7.32;2.60;;;4.90;70.30;;;;;;5049492;28;20040;-73
2022/01/07 02:07:00;;;;;;;7.03;3.03;;;5.00;70.30;;;;;;5051641;28;20399;-73
2022/01/07 02:09:34;;;;;;;6.63;2.60;;;4.90;70.50;;;;;;5050772;28;20036;-73
2022/01/07 02:12:00;;;;;;;5.47;2.83;;;4.70;71.10;;;;;;5048932;28;20036;-73
2022/01/07 02:14:25;;;;;;;7.95;2.53;;;4.80;70.80;;;;;;5049366;28;20051;-73
2022/01/07 02:16:51;;;;;;;6.57;2.72;;;4.80;71.00;;;;;;5049168;28;20025;-73
2022/01/07 02:19:17;;;;;;;5.75;2.80;;;4.70;72.00;;;;;;5049531;28;20029;-73
2022/01/07 02:21:43;;;;;;;5.15;2.63;;;4.70;72.90;;;;;;5052695;28;20032;-73
2022/01/07 02:24:08;;;;;;;9.15;2.40;;;4.80;73.40;;;;;;5049257;28;20069;-73
2022/01/07 02:26:35;;;;;;;4.75;2.10;;;4.80;72.90;;;;;;5050759;28;20021;-73
2022/01/07 02:29:01;;;;;;;4.15;2.05;;;4.80;72.00;;;;;;5050663;28;20025;-72
2022/01/07 02:31:27;;;;;;;5.28;2.25;;;4.80;71.20;;;;;;5050573;28;20495;-73
2022/01/07 02:33:53;;;;;;;5.80;2.47;;;4.80;70.90;;;;;;5051662;28;20082;-73
2022/01/07 02:36:19;;;;;;;6.35;2.80;;;5.00;71.40;;;;;;5051471;28;20017;-73
2022/01/07 02:38:45;;;;;;;6.75;2.80;;;4.90;72.00;;;;;;5050296;28;20049;-74
2022/01/07 02:41:11;;;;;;;5.70;3.05;;;4.90;72.30;;;;;;5050709;28;20104;-73
2022/01/07 02:43:36;;;;;;;6.47;3.03;;;5.00;72.40;;;;;;5048990;28;20028;-73
2022/01/07 02:46:02;;;;;;;5.00;2.67;;;4.90;72.40;;;;;;5051354;28;20387;-73
2022/01/07 02:48:28;;;;;;;7.07;2.92;;;4.80;71.90;;;;;;5050397;28;20389;-73
2022/01/07 02:50:55;;;;;;;8.65;3.55;;;4.80;72.50;;;;;;5048917;28;20025;-73
2022/01/07 02:53:20;;;;;;;5.95;3.13;;;4.60;72.20;;;;;;5049817;28;20483;-73
2022/01/07 02:55:46;;;;;;;6.93;2.88;;;4.50;73.20;;;;;;5050393;28;20100;-73
2022/01/07 02:58:12;;;;;;;6.85;3.00;;;4.50;72.70;;;;;;5049457;28;20033;-73
2022/01/07 03:00:38;;;;;;;5.63;2.63;;;4.50;72.00;;;;;;5058290;28;20024;-73
2022/01/07 03:03:06;;;;;;;5.40;2.78;;;4.50;71.80;;;;;;5049316;28;20484;-73
2022/01/07 03:05:32;;;;;;;7.18;2.97;;;4.60;71.30;;;;;;5048413;28;20526;-73
2022/01/07 03:07:57;;;;;;;7.70;3.13;;;4.70;71.10;;;;;;5048718;28;20506;-73
2022/01/07 03:10:26;;;;;;;8.20;3.15;;;4.70;70.70;;;;;;5048573;28;20030;-73
2022/01/07 03:12:53;;;;;;;6.38;2.67;;;4.70;70.00;;;;;;5047384;28;20075;-73
2022/01/07 03:15:19;;;;;;;6.30;3.20;;;4.90;69.80;;;;;;5051282;28;20025;-73
2022/01/07 03:17:45;;;;;;;6.93;2.75;;;4.90;69.80;;;;;;5050563;28;20048;-73
2022/01/07 03:20:15;;;;;;;7.00;2.42;;;4.80;70.00;;;;;;5050073;28;20114;-73
2022/01/07 03:22:42;;;;;;;8.05;2.50;;;4.80;70.10;;;;;;5050155;28;20029;-73
2022/01/07 03:25:09;;;;;;;6.82;2.92;;;4.80;71.90;;;;;;5050077;28;20124;-73
2022/01/07 03:27:34;;;;;;;4.50;2.50;;;4.80;72.30;;;;;;5051121;28;20078;-73
2022/01/07 03:30:01;;;;;;;5.88;2.55;;;4.80;73.70;;;;;;5050076;28;20025;-73
2022/01/07 03:32:26;;;;;;;5.82;2.55;;;4.80;71.50;;;;;;5049479;28;20021;-73
2022/01/07 03:34:53;;;;;;;4.55;2.35;;;4.90;71.00;;;;;;5049977;28;20449;-73
2022/01/07 03:37:19;;;;;;;4.57;2.15;;;4.90;70.40;;;;;;5050562;28;20052;-73
2022/01/07 03:39:45;;;;;;;5.45;2.20;;;4.90;70.50;;;;;;5051157;28;20434;-74
2022/01/07 03:42:11;;;;;;;5.15;2.10;;;4.80;70.80;;;;;;5049604;28;20113;-73
2022/01/07 03:44:36;;;;;;;5.32;2.53;;;4.70;72.70;;;;;;5049911;28;20120;-73
2022/01/07 03:47:03;;;;;;;7.10;2.10;;;4.80;70.80;;;;;;5047829;28;20057;-73
2022/01/07 03:49:28;;;;;;;4.97;2.28;;;4.70;71.10;;;;;;5048087;28;20057;-73
2022/01/07 03:51:54;;;;;;;6.55;2.22;;;4.60;71.10;;;;;;5050137;28;20071;-73
2022/01/07 03:54:20;;;;;;;4.82;2.38;;;4.70;73.00;;;;;;5048547;28;20044;-73
2022/01/07 03:56:47;;;;;;;5.88;2.13;;;4.70;72.80;;;;;;5047143;28;20052;-73
2022/01/07 03:59:13;;;;;;;7.43;2.42;;;4.70;72.40;;;;;;5047453;28;20029;-72
2022/01/07 04:01:39;;;;;;;3.33;1.80;;;4.60;71.20;;;;;;5047934;28;20497;-73
2022/01/07 04:04:05;;;;;;;4.20;1.90;;;4.60;69.80;;;;;;5048956;28;20029;-73
2022/01/07 04:06:30;;;;;;;6.47;2.40;;;4.80;70.90;;;;;;5049726;28;20025;-73
2022/01/07 04:08:57;;;;;;;4.10;2.10;;;4.80;70.70;;;;;;5048176;28;20370;-73
2022/01/07 04:11:23;;;;;;;4.35;2.15;;;4.70;72.40;;;;;;5049122;28;20017;-73
2022/01/07 04:13:49;;;;;;;7.45;2.20;;;4.60;74.00;;;;;;5049610;28;20074;-73
2022/01/07 04:16:14;;;;;;;4.45;2.30;;;4.60;73.80;;;;;;5050134;28;20381;-73
2022/01/07 04:18:40;;;;;;;4.82;2.30;;;4.50;72.70;;;;;;5050486;28;20024;-73
2022/01/07 04:21:06;;;;;;;4.20;2.28;;;4.60;72.20;;;;;;5049201;28;20108;-73
2022/01/07 04:23:32;;;;;;;5.05;2.63;;;4.60;70.90;;;;;;5049319;28;20035;-73
2022/01/07 04:25:58;;;;;;;4.45;2.58;;;4.50;71.20;;;;;;5049166;28;20033;-73
2022/01/07 04:28:24;;;;;;;7.05;2.22;;;4.50;71.00;;;;;;5049198;28;20151;-73
2022/01/07 04:30:49;;;;;;;4.03;1.83;;;4.60;71.10;;;;;;5050073;28;20100;-73
2022/01/07 04:33:21;;;;;;;6.55;2.45;;;4.60;71.40;;;;;;5049704;28;20446;-73
2022/01/07 04:35:47;;;;;;;5.72;2.13;;;4.60;70.30;;;;;;5052172;28;20036;-73
2022/01/07 04:38:13;;;;;;;2.63;1.80;;;4.70;70.50;;;;;;5053175;28;20487;-73
2022/01/07 04:40:39;;;;;;;5.13;2.50;;;4.70;69.50;;;;;;5052133;28;20473;-74
2022/01/07 04:43:06;;;;;;;6.57;2.50;;;4.80;69.00;;;;;;5052442;28;20021;-73
2022/01/07 04:45:32;;;;;;;6.72;2.75;;;4.80;69.20;;;;;;5054367;28;20037;-73
2022/01/07 04:47:58;;;;;;;4.88;2.33;;;4.90;68.50;;;;;;5052158;28;20036;-73
2022/01/07 04:50:24;;;;;;;3.72;2.03;;;4.90;68.90;;;;;;5052673;28;20029;-73
2022/01/07 04:52:50;;;;;;;4.18;2.00;;;5.00;68.90;;;;;;5051962;28;20466;-73
2022/01/07 04:55:25;;;;;;;5.82;2.22;;;5.10;68.90;;;;;;5056838;28;20032;-73
2022/01/07 04:57:52;;;;;;;4.32;2.22;;;5.00;68.00;;;;;;5053684;28;20444;-73
2022/01/07 05:00:21;;;;;;;6.07;2.70;;;5.10;68.20;;;;;;5052799;28;20561;-73
2022/01/07 05:02:47;;;;;;;4.70;2.28;;;5.10;67.60;;;;;;5051940;28;20100;-73
2022/01/07 05:05:13;;;;;;;7.68;2.40;;;5.10;68.20;;;;;;5051616;28;20068;-73
2022/01/07 05:07:40;;;;;;;5.28;2.42;;;5.10;67.50;;;;;;5051688;28;20068;-73
2022/01/07 05:10:08;;;;;;;5.40;2.67;;;5.10;67.40;;;;;;5051825;28;20033;-73
2022/01/07 05:12:34;;;;;;;5.63;2.70;;;5.10;67.50;;;;;;5052549;28;20067;-73
2022/01/07 05:15:00;;;;;;;5.07;2.80;;;5.10;67.60;;;;;;5051915;28;20033;-73
2022/01/07 05:17:26;;;;;;;4.97;2.53;;;4.90;67.60;;;;;;5051148;28;20112;-73
2022/01/07 05:19:52;;;;;;;7.30;2.90;;;5.00;67.90;;;;;;5051214;28;20444;-73
2022/01/07 05:22:18;;;;;;;5.07;2.50;;;5.00;68.00;;;;;;5051404;28;20416;-73
2022/01/07 05:24:43;;;;;;;6.70;2.65;;;5.00;67.30;;;;;;5053177;28;20044;-73
2022/01/07 05:27:09;;;;;;;7.88;2.70;;;5.00;66.90;;;;;;5051348;28;20029;-73
2022/01/07 05:29:35;;;;;;;4.97;2.70;;;5.00;67.00;;;;;;5050863;28;20033;-73
2022/01/07 05:32:04;;;;;;;4.85;2.30;;;5.00;67.40;;;;;;5050613;28;20383;-73
2022/01/07 05:34:29;;;;;;;6.80;3.10;;;4.90;69.10;;;;;;5059037;28;20100;-74
2022/01/07 05:36:55;;;;;;;6.90;2.97;;;4.80;69.10;;;;;;5052609;28;20448;-73
2022/01/07 05:39:21;;;;;;;9.50;4.90;;;4.70;68.80;;;;;;5051318;28;20036;-73
2022/01/07 05:41:47;;;;;;;9.90;4.85;;;4.80;68.80;;;;;;5050423;28;20024;-73
2022/01/07 05:44:12;;;;;;;8.80;4.78;;;4.80;68.60;;;;;;5050240;28;20126;-73
2022/01/07 05:46:38;;;;;;;9.48;4.80;;;4.90;67.80;;;;;;5050029;28;20092;-73
2022/01/07 05:49:04;;;;;;;6.68;3.40;;;4.90;68.40;;;;;;5051621;28;20434;-73
2022/01/07 05:51:29;;;;;;;5.35;2.80;;;4.90;67.50;;;;;;5051491;28;20570;-73
2022/01/07 05:53:55;;;;;;;6.47;3.00;;;4.90;67.50;;;;;;5049647;28;20503;-72
2022/01/07 05:56:21;;;;;;;5.13;2.88;;;4.90;66.80;;;;;;5050126;28;20028;-73
2022/01/07 05:58:47;;;;;;;5.57;2.95;;;4.90;66.40;;;;;;5048851;28;20028;-73
2022/01/07 06:01:13;;;;;;;6.90;3.10;;;4.80;67.40;;;;;;5049975;28;20029;-72
2022/01/07 06:03:40;;;;;;;7.32;3.75;;;4.80;67.20;;;;;;5052367;28;20029;-73
2022/01/07 06:06:05;;;;;;;9.70;4.55;;;4.80;69.00;;;;;;5049586;28;20519;-73
2022/01/07 06:08:31;;;;;;;8.35;4.63;;;4.80;67.40;;;;;;5049387;28;20025;-73
2022/01/07 06:10:57;;;;;;;8.32;4.43;;;4.80;67.40;;;;;;5049721;28;20041;-73
2022/01/07 06:13:22;;;;;;;9.13;4.82;;;4.70;67.30;;;;;;5049153;28;20037;-73
2022/01/07 06:15:48;;;;;;;8.25;5.13;;;4.60;67.60;;;;;;5052065;28;20058;-73
2022/01/07 06:18:14;;;;;;;13.65;6.60;;;4.60;67.90;;;;;;5052035;28;20198;-73
2022/01/07 06:20:40;;;;;;;9.77;5.25;;;4.50;67.80;;;;;;5048669;28;20513;-73
2022/01/07 06:23:06;;;;;;;9.95;4.70;;;4.50;67.80;;;;;;5049262;28;20487;-73
2022/01/07 06:25:31;;;;;;;7.88;4.57;;;4.60;67.30;;;;;;5048883;28;20121;-73
2022/01/07 06:27:57;;;;;;;7.55;2.88;;;4.50;69.00;;;;;;5051617;28;20036;-73
2022/01/07 06:30:23;;;;;;;4.35;2.47;;;4.60;68.10;;;;;;5050038;28;20448;-73
2022/01/07 06:32:48;;;;;;;4.88;2.40;;;4.50;67.70;;;;;;5048787;28;20025;-73
2022/01/07 06:35:14;;;;;;;6.32;2.63;;;4.50;67.40;;;;;;5048234;28;20499;-73
2022/01/07 06:37:40;;;;;;;4.55;2.40;;;4.40;68.10;;;;;;5048828;28;20087;-72
2022/01/07 06:40:07;;;;;;;5.15;2.40;;;4.30;70.00;;;;;;5050471;28;20061;-73
2022/01/07 06:42:33;;;;;;;3.72;2.33;;;4.30;69.10;;;;;;5050573;28;20036;-73
2022/01/07 06:44:59;;;;;;;6.63;2.70;;;4.20;70.60;;;;;;5049076;28;20037;-73
2022/01/07 06:47:25;;;;;;;9.82;4.03;;;4.10;70.60;;;;;;5048175;28;20108;-73
2022/01/07 06:49:51;;;;;;;9.15;3.97;;;4.10;71.40;;;;;;5048198;28;20029;-73
2022/01/07 06:52:17;;;;;;;8.25;4.00;;;4.10;71.30;;;;;;5049040;28;20072;-73
2022/01/07 06:54:42;;;;;;;7.75;3.78;;;4.10;70.70;;;;;;5051183;28;20480;-73
2022/01/07 06:57:08;;;;;;;8.63;4.95;;;4.10;73.10;;;;;;5042651;28;20068;-73
2022/01/07 06:59:34;;;;;;;11.85;5.43;;;4.10;71.10;;;;;;5046983;28;20028;-73
2022/01/07 07:02:00;;;;;;;9.82;5.88;;;4.00;71.20;;;;;;5048282;28;20491;-73
2022/01/07 07:04:25;;;;;;;10.30;5.60;;;4.00;71.90;;;;;;5048057;28;20511;-73
2022/01/07 07:06:51;;;;;;;10.07;5.47;;;4.10;71.30;;;;;;5050821;28;20107;-73
2022/01/07 07:09:18;;;;;;;10.35;5.35;;;4.10;71.10;;;;;;5049106;28;20025;-73
2022/01/07 07:11:44;;;;;;;9.85;5.43;;;3.90;71.40;;;;;;5047626;28;20025;-73
2022/01/07 07:14:11;;;;;;;9.20;4.90;;;4.00;71.40;;;;;;5048080;28;20043;-73
2022/01/07 07:16:36;;;;;;;8.20;4.60;;;4.00;71.00;;;;;;5048334;28;20075;-73
2022/01/07 07:19:02;;;;;;;9.15;4.40;;;4.00;71.30;;;;;;5048002;28;20108;-73
2022/01/07 07:21:28;;;;;;;9.68;4.50;;;4.00;71.00;;;;;;5049206;28;20526;-73
2022/01/07 07:23:54;;;;;;;10.55;4.30;;;4.00;70.40;;;;;;5047828;28;20068;-74
2022/01/07 07:26:19;;;;;;;10.25;4.28;;;4.00;69.90;;;;;;5051508;28;20040;-73
2022/01/07 07:28:46;;;;;;;8.88;4.38;;;4.10;69.60;;;;;;5047903;28;20036;-73
2022/01/07 07:31:15;;;;;;;9.55;4.45;;;4.10;69.70;;;;;;5048763;28;20473;-73
2022/01/07 07:36:30;;;;;;;9.10;4.25;;;4.20;70.30;;;;;;5049734;28;20037;-73
2022/01/07 07:39:07;;;;;;;7.65;4.20;;;4.20;68.90;;;;;;5047819;28;20181;-74
2022/01/07 07:41:35;;;;;;;11.93;4.60;;;4.20;69.60;;;;;;5046843;28;20025;-73
2022/01/07 07:44:01;;;;;;;9.77;4.85;;;4.20;69.40;;;;;;5047446;28;20381;-73
2022/01/07 07:46:30;;;;;;;10.60;5.10;;;4.10;69.70;;;;;;5047701;28;20029;-75
2022/01/07 07:48:58;;;;;;;7.65;4.18;;;4.10;69.70;;;;;;5049754;28;20033;-76
2022/01/07 07:51:23;;;;;;;8.85;3.92;;;4.10;70.40;;;;;;5048674;28;20025;-77
2022/01/07 07:53:49;;;;;;;8.30;4.00;;;4.20;71.00;;;;;;5046929;28;20128;-74
2022/01/07 07:56:16;;;;;;;7.13;3.75;;;4.10;70.90;;;;;;5047447;28;20438;-75
2022/01/07 07:58:43;;;;;;;10.02;4.57;;;4.10;71.00;;;;;;5047878;28;20376;-75
2022/01/07 08:01:09;;;;;;;8.75;3.90;;;4.00;71.40;;;;;;5048208;28;20113;-75
2022/01/07 08:03:35;;;;;;;7.30;3.53;;;3.90;72.20;;;;;;5058136;28;20059;-74
2022/01/07 08:06:01;;;;;;;6.30;3.20;;;4.00;71.90;;;;;;5047328;28;20021;-75
2022/01/07 08:08:27;;;;;;;7.57;3.70;;;4.10;71.20;;;;;;5048112;28;20025;-74
2022/01/07 08:10:57;;;;;;;8.63;3.90;;;4.30;71.40;;;;;;5050775;28;20024;-74
2022/01/07 08:15:58;;;;;;;7.43;3.88;;;4.30;71.00;;;;;;5048969;28;20030;-75
2022/01/07 08:16:23;;;;;;;7.20;3.40;;;4.40;71.50;;;;;;5047033;28;20391;-74
2022/01/07 08:18:53;;;;;;;9.20;4.10;;;4.60;70.90;;;;;;5052427;28;20025;-75
2022/01/07 08:21:20;;;;;;;6.38;3.78;;;4.70;70.80;;;;;;5052556;28;20032;-75
2022/01/07 08:23:46;;;;;;;7.68;4.30;;;4.70;70.60;;;;;;5049777;28;20047;-75
2022/01/07 08:26:14;;;;;;;7.65;4.40;;;4.90;71.80;;;;;;5049760;28;20017;-74
2022/01/07 08:28:45;;;;;;;7.63;4.20;;;5.20;70.70;;;;;;5050186;28;20059;-75
2022/01/07 08:36:25;;;;;;;9.77;6.32;;;8.00;63.70;;;;;;5049118;28;20164;-73
2022/01/07 08:38:55;;;;;;;10.73;6.43;;;10.90;56.40;;;;;;5042177;28;20061;-73
2022/01/07 08:41:23;;;;;;;11.60;7.10;;;12.90;50.60;;;;;;5040795;28;20034;-74
2022/01/07 08:43:49;;;;;;;11.20;6.10;;;14.70;47.20;;;;;;5038946;28;20423;-76
2022/01/07 08:46:15;;;;;;;7.85;4.85;;;15.60;45.60;;;;;;5050791;28;20029;-76
2022/01/07 08:48:42;;;;;;;8.05;3.78;;;16.10;43.80;;;;;;5046414;28;20384;-77
2022/01/07 08:51:08;;;;;;;6.43;3.33;;;16.40;42.90;;;;;;5050492;28;20111;-76
2022/01/07 08:53:36;;;;;;;8.65;2.80;;;16.10;43.40;;;;;;5045190;28;20050;-75
2022/01/07 08:56:01;;;;;;;4.95;2.25;;;15.40;45.30;;;;;;5050294;28;20487;-75
2022/01/07 08:58:27;;;;;;;6.35;2.15;;;14.60;45.50;;;;;;5047909;28;20484;-74
2022/01/07 09:00:53;;;;;;;6.80;2.40;;;13.60;47.90;;;;;;5046010;28;20025;-74
2022/01/07 09:03:19;;;;;;;5.25;2.22;;;12.20;50.50;;;;;;5045736;28;20033;-74
2022/01/07 09:05:45;;;;;;;8.05;2.63;;;11.60;52.90;;;;;;5052360;28;20029;-74
2022/01/07 09:08:12;;;;;;;7.75;3.05;;;11.30;53.20;;;;;;5052828;28;20029;-75
2022/01/07 09:10:38;;;;;;;7.82;4.55;;;11.00;53.90;;;;;;5052928;28;20122;-74
2022/01/07 09:13:04;;;;;;;6.22;3.75;;;10.50;55.00;;;;;;5045183;28;20025;-74
2022/01/07 09:15:31;;;;;;;8.00;3.17;;;10.30;56.20;;;;;;5052949;28;20036;-74
2022/01/07 09:17:56;;;;;;;7.20;3.30;;;10.20;56.80;;;;;;5051320;28;20033;-74
2022/01/07 09:20:22;;;;;;;6.28;2.80;;;10.10;57.00;;;;;;5049392;28;20029;-74
2022/01/07 09:22:49;;;;;;;6.43;2.80;;;10.00;57.10;;;;;;5050071;28;20060;-74
2022/01/07 09:25:15;;;;;;;7.55;3.03;;;10.10;57.40;;;;;;5050028;28;20044;-77
2022/01/07 09:27:41;;;;;;;6.88;2.55;;;10.10;56.80;;;;;;5053337;28;20028;-77
2022/01/07 09:30:11;;;;;;;6.45;2.28;;;10.20;56.90;;;;;;5048984;28;20066;-76
2022/01/07 09:32:38;;;;;;;5.80;2.45;;;10.20;57.40;;;;;;5049702;28;20021;-76
2022/01/07 09:35:05;;;;;;;5.38;2.42;;;10.30;57.70;;;;;;5049269;28;20460;-78
2022/01/07 09:37:31;;;;;;;6.72;3.30;;;10.40;57.20;;;;;;5049805;28;20431;-76
2022/01/07 09:40:00;;;;;;;6.95;3.65;;;10.40;56.60;;;;;;5051963;28;20406;-77
2022/01/07 09:42:26;;;;;;;5.22;2.72;;;10.50;56.30;;;;;;5049834;28;20530;-76
2022/01/07 09:44:52;;;;;;;5.30;2.00;;;10.60;55.90;;;;;;5048947;28;20033;-77
2022/01/07 09:47:17;;;;;;;6.38;3.67;;;10.70;55.90;;;;;;5048303;28;20021;-76
2022/01/07 09:49:43;;;;;;;5.40;2.90;;;10.80;55.60;;;;;;5048763;28;20021;-77
2022/01/07 09:52:09;;;;;;;6.18;2.50;;;10.80;56.00;;;;;;5049393;28;20031;-76
2022/01/07 09:54:37;;;;;;;5.93;2.55;;;10.90;54.90;;;;;;5051393;28;20045;-77
2022/01/07 09:57:06;;;;;;;3.58;2.00;;;10.80;54.60;;;;;;5049341;28;20037;-76
2022/01/07 09:59:32;;;;;;;4.40;2.25;;;11.00;55.00;;;;;;5050382;28;20506;-76
2022/01/07 10:02:06;;;;;;;4.03;2.03;;;11.00;54.60;;;;;;5049411;28;20027;-76
2022/01/07 10:04:42;;;;;;;5.65;2.88;;;10.90;54.70;;;;;;5051282;28;20041;-77
2022/01/07 10:07:17;;;;;;;6.18;2.78;;;11.00;55.10;;;;;;5050511;28;20115;-77
2022/01/07 10:10:06;;;;;;;6.20;3.20;;;11.10;55.10;;;;;;5048435;28;20033;-76
2022/01/07 10:13:00;;;;;;;5.90;2.67;;;11.20;54.90;;;;;;5050267;28;20025;-77
2022/01/07 10:15:32;;;;;;;6.53;2.45;;;11.30;54.10;;;;;;4970851;28;20259;-77
2022/01/07 10:17:59;;;;;;;4.80;2.10;;;11.10;54.00;;;;;;4968467;28;20023;-76
2022/01/07 10:20:30;;;;;;;5.30;2.33;;;11.20;54.00;;;;;;4971237;28;20429;-77
2022/01/07 10:23:01;;;;;;;8.15;2.50;;;11.20;54.00;;;;;;4970591;28;20033;-77
2022/01/07 10:25:30;;;;;;;6.30;2.55;;;11.20;54.90;;;;;;4970604;28;20538;-77
2022/01/07 10:28:06;;;;;;;5.40;2.17;;;10.90;55.20;;;;;;4970346;28;20031;-77
2022/01/07 10:30:37;;;;;;;7.35;2.70;;;10.70;55.60;;;;;;4969790;28;20538;-77
2022/01/07 10:33:17;;;;;;;6.45;2.90;;;10.40;56.00;;;;;;4970403;28;20109;-77
2022/01/07 10:35:44;;;;;;;6.15;2.85;;;10.30;56.20;;;;;;4970216;28;20027;-76
2022/01/07 10:38:15;;;;;;;8.85;2.85;;;10.40;56.80;;;;;;4969807;28;20165;-76
2022/01/07 10:40:42;;;;;;;8.43;2.63;;;10.70;56.20;;;;;;4970292;28;20035;-76
2022/01/07 10:43:12;;;;;;;7.05;2.50;;;10.80;56.20;;;;;;4969829;28;20101;-77
2022/01/07 10:45:40;;;;;;;6.30;2.30;;;10.90;54.80;;;;;;4970784;28;20043;-76
2022/01/07 10:48:09;;;;;;;5.95;2.60;;;11.10;54.80;;;;;;4969853;28;20112;-76
2022/01/07 10:50:55;;;;;;;7.05;3.15;;;11.20;54.80;;;;;;4969737;28;20485;-76
2022/01/07 10:53:28;;;;;;;6.10;2.38;;;11.40;53.20;;;;;;5037106;28;20112;-76
2022/01/07 10:56:05;;;;;;;6.75;2.45;;;11.50;52.40;;;;;;5047642;28;20071;-77
2022/01/07 10:58:50;;;;;;;5.90;2.30;;;11.70;52.50;;;;;;5043164;28;20063;-76
2022/01/07 11:01:19;;;;;;;6.80;2.45;;;11.80;52.30;;;;;;5049859;28;20025;-77
2022/01/07 11:03:53;;;;;;;6.55;2.30;;;11.90;52.20;;;;;;5046991;28;20108;-76
2022/01/07 11:06:20;;;;;;;6.57;3.38;;;11.90;51.70;;;;;;5051020;28;20029;-76
2022/01/07 11:08:50;;;;;;;7.55;4.93;;;12.00;51.90;;;;;;5049901;28;20402;-72
2022/01/07 11:11:18;;;;;;;6.03;2.70;;;12.10;52.20;;;;;;5049858;28;20023;-77
2022/01/07 11:13:43;;;;;;;5.40;2.25;;;12.10;52.10;;;;;;5050431;28;20036;-77
2022/01/07 11:16:09;;;;;;;26.48;18.20;;;12.30;51.50;;;;;;5049677;28;20024;-77
2022/01/07 11:18:39;;;;;;;6.25;1.92;;;12.40;51.30;;;;;;5051036;28;20025;-77
2022/01/07 11:21:06;;;;;;;6.18;2.17;;;12.50;50.10;;;;;;5048882;28;20044;-77
2022/01/07 11:23:33;;;;;;;6.70;2.28;;;12.60;50.50;;;;;;5049422;28;20021;-77
2022/01/07 11:26:10;;;;;;;6.55;2.05;;;12.60;50.80;;;;;;5048786;28;20471;-77
2022/01/07 11:28:52;;;;;;;4.20;1.77;;;12.60;50.40;;;;;;5043200;28;20108;-77
2022/01/07 11:31:18;;;;;;;5.00;1.73;;;12.80;49.00;;;;;;5048849;28;20487;-75
2022/01/07 11:33:43;;;;;;;5.85;2.50;;;12.80;48.70;;;;;;5050593;28;20048;-76
2022/01/07 11:36:33;;;;;;;3.70;1.70;;;13.00;49.20;;;;;;5049039;28;20281;-78
2022/01/07 11:39:04;;;;;;;3.42;1.73;;;12.90;48.60;;;;;;5049436;28;20111;-78
2022/01/07 11:41:41;;;;;;;4.85;1.90;;;13.10;49.10;;;;;;5043070;28;20064;-79
2022/01/07 11:44:20;;;;;;;6.63;1.98;;;13.20;48.60;;;;;;5048329;28;20423;-83
2022/01/07 11:46:46;;;;;;;6.22;1.98;;;13.40;49.40;;;;;;5049209;28;20031;-81
2022/01/07 11:49:35;;;;;;;5.22;2.00;;;13.50;50.10;;;;;;5048671;28;20026;-83
2022/01/07 11:52:30;;;;;;;7.60;2.30;;;13.60;49.20;;;;;;5053216;28;20029;-80
2022/01/07 11:55:26;;;;;;;6.22;2.45;;;13.70;49.20;;;;;;5046565;28;20052;-84
2022/01/07 11:58:03;;;;;;;5.70;2.20;;;13.90;48.80;;;;;;5046045;28;20045;-86
2022/01/07 12:00:47;;;;;;;5.47;2.10;;;14.00;48.20;;;;;;5049854;28;20053;-76
2022/01/07 12:03:13;;;;;;;;;;;13.90;47.80;;;;;;5048346;28;20021;-79
2022/01/07 12:05:39;;;;;;;5.60;2.30;;;14.10;49.00;;;;;;5046136;28;19959;-84
2022/01/07 12:08:04;;;;;;;4.25;1.80;;;14.20;47.60;;;;;;5047674;28;20112;-83
2022/01/07 12:10:30;;;;;;;5.65;1.67;;;14.20;48.50;;;;;;5047569;28;20510;-80
2022/01/07 12:13:00;;;;;;;5.60;1.90;;;14.50;48.60;;;;;;5049393;28;20111;-81
2022/01/07 12:15:27;;;;;;;6.38;2.45;;;14.60;48.90;;;;;;5050007;28;20507;-80
2022/01/07 12:17:53;;;;;;;6.72;2.30;;;14.80;47.40;;;;;;5048544;28;20029;-79
2022/01/07 12:20:50;;;;;;;6.65;2.50;;;14.90;47.60;;;;;;5048825;28;20100;-80
2022/01/07 12:23:20;;;;;;;5.85;2.30;;;15.00;47.30;;;;;;5048127;28;20032;-83
2022/01/07 12:25:51;;;;;;;4.57;1.80;;;15.20;48.50;;;;;;5048808;28;20144;-82
2022/01/07 12:28:17;;;;;;;6.03;1.92;;;15.40;46.70;;;;;;5046595;28;20032;-83
2022/01/07 12:30:43;;;;;;;5.85;2.10;;;15.80;46.20;;;;;;5058762;28;20024;-71
2022/01/07 12:33:10;;;;;;;5.88;2.00;;;16.40;45.40;;;;;;5048428;28;20033;-77
2022/01/07 12:35:37;;;;;;;6.68;2.10;;;18.10;45.10;;;;;;5043206;28;20025;-72
2022/01/07 12:38:29;;;;;;;4.82;2.05;;;20.60;42.60;;;;;;5048442;28;20021;-76
2022/01/07 12:41:00;;;;;;;4.13;1.83;;;22.90;39.00;;;;;;5039540;28;20041;-76
2022/01/07 12:43:32;;;;;;;6.55;2.20;;;24.30;37.80;;;;;;5048311;28;20021;-76
2022/01/07 12:45:59;;;;;;;6.20;2.00;;;25.30;36.40;;;;;;5049136;28;20484;-76
2022/01/07 12:48:39;;;;;;;6.25;2.00;;;23.30;36.30;;;;;;5049102;28;20036;-75
2022/01/07 12:51:07;;;;;;;13.25;6.82;;;19.70;40.20;;;;;;5047980;28;20072;-81
2022/01/07 12:53:33;;;;;;;22.75;13.85;;;17.60;42.80;;;;;;5048039;28;20037;-75
2022/01/07 12:56:22;;;;;;;28.40;16.63;;;16.30;44.40;;;;;;5049748;28;20044;-80
2022/01/07 12:58:48;;;;;;;22.13;12.60;;;15.20;45.90;;;;;;5051558;28;20032;-77
2022/01/07 13:01:24;;;;;;;13.73;7.45;;;14.50;48.40;;;;;;5050098;28;20561;-76
2022/01/07 13:04:09;;;;;;;26.50;16.88;;;14.20;49.00;;;;;;5050155;28;20029;-77